Time;durP1;ratioP1;P1;durP2;ratioP2;P2;SDS_P1;SDS_P2;PMS_P1;PMS_P2;Temp;Humidity;BMP_temperature;BMP_pressure;BME280_temperature;BME280_humidity;BME280_pressure;Samples;Min_cycle;Max_cycle;Signal;HPM_P1;HPM_P2
2023/10/07 00:02:12;;;;;;;2.93;2.20;;;14.80;99.90;14.20;99297;;;;577113;243;24104;-78
2023/10/07 00:04:31;;;;;;;3.27;2.80;;;14.80;99.90;14.20;99284;;;;577013;240;24066;-79
2023/10/07 00:06:59;;;;;;;3.63;2.57;;;14.90;99.90;14.20;99296;;;;576872;243;24068;-79
2023/10/07 00:09:27;;;;;;;5.77;2.63;;;14.90;99.90;14.30;99282;;;;576652;243;24069;-79
2023/10/07 00:11:54;;;;;;;3.73;2.10;;;14.90;99.90;14.30;99276;;;;576242;246;24060;-80
2023/10/07 00:14:29;;;;;;;2.23;2.10;;;14.90;99.90;14.30;99270;;;;575779;245;24093;-78
2023/10/07 00:16:51;;;;;;;2.93;2.10;;;14.90;99.90;14.40;99256;;;;576088;243;24071;-79
2023/10/07 00:19:19;;;;;;;2.47;2.20;;;15.00;99.90;14.40;99258;;;;575845;246;24057;-78
2023/10/07 00:21:59;;;;;;;3.37;2.20;;;15.00;99.90;14.40;99247;;;;575769;246;24053;-78
2023/10/07 00:24:25;;;;;;;1.70;1.60;;;15.10;99.90;14.40;99234;;;;575669;246;24055;-79
2023/10/07 00:26:49;;;;;;;1.97;1.87;;;15.00;99.90;14.40;99229;;;;575981;243;24063;-79
2023/10/07 00:29:21;;;;;;;2.17;2.07;;;15.10;99.90;14.50;99223;;;;575905;246;24056;-79
2023/10/07 00:31:50;;;;;;;3.33;1.70;;;15.10;99.90;14.50;99217;;;;576135;239;24093;-79
2023/10/07 00:34:18;;;;;;;3.30;2.20;;;15.10;99.90;14.50;99217;;;;572329;247;24152;-79
2023/10/07 00:36:47;;;;;;;4.53;2.23;;;15.10;99.90;14.50;99211;;;;576486;244;24055;-78
2023/10/07 00:39:20;;;;;;;3.00;1.73;;;15.20;99.90;14.60;99179;;;;577181;243;24057;-78
2023/10/07 00:41:45;;;;;;;3.90;1.80;;;15.20;99.90;14.50;99193;;;;577267;244;24060;-78
2023/10/07 00:44:32;;;;;;;2.10;1.67;;;15.20;99.90;14.60;99198;;;;576625;246;24064;-81
2023/10/07 00:49:53;;;;;;;2.10;1.90;;;15.20;99.90;14.60;99186;;;;576063;246;24070;-78
2023/10/07 00:52:05;;;;;;;2.43;2.07;;;15.20;99.90;14.60;99177;;;;578601;246;24080;-79
2023/10/07 00:54:30;;;;;;;1.97;1.70;;;15.20;99.90;14.60;99168;;;;575563;243;24086;-78
2023/10/07 00:59:50;;;;;;;5.70;1.57;;;15.20;99.90;14.60;99165;;;;549152;257;24167;-79
2023/10/07 01:02:29;;;;;;;3.60;1.70;;;15.20;99.90;14.70;99165;;;;559711;247;24084;-79
2023/10/07 01:04:42;;;;;;;3.12;2.17;;;15.30;99.90;14.80;99155;;;;567953;245;35047;-79
2023/10/07 01:07:18;;;;;;;3.53;1.70;;;15.40;99.90;14.80;99171;;;;576713;246;24051;-79
2023/10/07 01:09:39;;;;;;;1.83;1.67;;;15.40;99.90;14.80;99164;;;;575726;246;24071;-79
2023/10/07 01:12:08;;;;;;;2.80;1.23;;;15.50;99.90;14.90;99148;;;;576266;244;24091;-79
2023/10/07 01:14:35;;;;;;;1.60;1.50;;;15.60;99.90;14.90;99138;;;;576080;246;24098;-79
2023/10/07 01:17:03;;;;;;;4.63;1.57;;;15.50;99.90;14.90;99135;;;;575825;246;24160;-79
2023/10/07 01:19:43;;;;;;;1.80;1.50;;;15.60;99.90;14.90;99124;;;;576110;245;24084;-79
2023/10/07 01:22:23;;;;;;;5.07;1.80;;;15.50;99.90;14.90;99132;;;;576776;243;24065;-79
2023/10/07 01:27:21;;;;;;;4.00;1.60;;;15.50;99.90;14.90;99126;;;;575706;246;24071;-78
2023/10/07 01:32:27;;;;;;;2.17;1.20;;;15.50;99.90;14.90;99135;;;;572371;246;24068;-79
2023/10/07 01:34:52;;;;;;;4.83;1.73;;;15.50;99.90;15.00;99138;;;;576276;243;24127;-78
2023/10/07 01:37:22;;;;;;;1.77;1.17;;;15.60;99.90;15.00;99136;;;;575830;243;24059;-79
2023/10/07 01:39:52;;;;;;;3.23;1.57;;;15.60;99.90;15.00;99128;;;;575652;246;24044;-80
2023/10/07 01:42:36;;;;;;;2.00;1.70;;;15.60;99.90;15.10;99120;;;;575369;245;24073;-78
2023/10/07 01:44:56;;;;;;;1.50;1.33;;;15.70;99.90;15.10;99080;;;;576629;243;24063;-81
2023/10/07 01:47:29;;;;;;;3.27;1.00;;;15.70;99.90;15.10;99078;;;;575692;243;24069;-79
2023/10/07 01:49:53;;;;;;;1.73;1.40;;;15.70;99.90;15.10;99044;;;;575543;244;24078;-79
2023/10/07 01:52:27;;;;;;;4.30;1.87;;;15.70;99.90;15.10;99037;;;;575498;246;24066;-80
2023/10/07 01:54:58;;;;;;;1.70;1.60;;;15.70;99.90;15.20;99037;;;;579123;243;35228;-81
2023/10/07 01:57:23;;;;;;;2.17;1.60;;;15.80;99.90;15.20;99040;;;;575179;246;24067;-79
2023/10/07 01:59:58;;;;;;;6.03;1.20;;;15.80;99.90;15.20;99039;;;;575334;246;23062;-79
2023/10/07 02:02:25;;;;;;;3.50;0.97;;;15.80;99.90;15.30;99036;;;;575307;246;24079;-79
2023/10/07 02:04:47;;;;;;;3.57;1.00;;;15.90;99.90;15.30;99010;;;;576088;244;24118;-79
2023/10/07 02:07:15;;;;;;;6.20;1.30;;;15.90;99.90;15.30;99015;;;;575872;246;24113;-79
2023/10/07 02:09:43;;;;;;;1.07;1.07;;;15.90;99.90;15.30;99008;;;;575529;246;24062;-78
2023/10/07 02:12:16;;;;;;;1.23;0.87;;;15.90;99.90;15.30;98988;;;;575404;246;24042;-78
2023/10/07 02:14:40;;;;;;;1.13;1.00;;;15.90;99.90;15.30;99011;;;;575663;244;24095;-78
2023/10/07 02:17:12;;;;;;;0.97;0.70;;;15.90;99.90;15.40;99028;;;;576718;244;24076;-79
2023/10/07 02:19:40;;;;;;;1.50;0.87;;;15.90;99.90;15.40;99020;;;;571548;246;24062;-78
2023/10/07 02:22:07;;;;;;;0.70;0.70;;;15.90;99.90;15.30;99039;;;;576647;243;24078;-78
2023/10/07 02:24:34;;;;;;;1.63;0.83;;;15.90;99.90;15.30;99037;;;;576116;246;24086;-77
2023/10/07 02:27:17;;;;;;;1.53;0.97;;;15.90;99.90;15.40;99050;;;;571210;246;25130;-78
2023/10/07 02:29:40;;;;;;;1.30;0.70;;;15.90;99.90;15.40;99055;;;;580499;244;24148;-79
2023/10/07 02:32:12;;;;;;;0.93;0.87;;;16.00;99.90;15.50;99049;;;;576128;243;24066;-79
2023/10/07 02:34:51;;;;;;;4.13;0.70;;;16.10;99.90;15.60;99041;;;;575937;244;24129;-78
2023/10/07 02:37:13;;;;;;;1.13;0.50;;;16.10;99.90;15.60;99043;;;;577019;245;24069;-78
2023/10/07 02:39:47;;;;;;;0.83;0.83;;;16.20;99.90;15.70;99066;;;;576059;246;24046;-79
2023/10/07 02:42:31;;;;;;;2.43;1.07;;;16.30;99.90;15.70;99031;;;;576230;246;24082;-79
2023/10/07 02:45:43;;;;;;;1.03;0.57;;;16.30;99.90;15.80;99042;;;;576118;246;24057;-80
2023/10/07 02:47:32;;;;;;;3.30;0.80;;;16.30;99.90;15.80;99020;;;;573076;246;24063;-80
2023/10/07 02:50:01;;;;;;;1.10;1.00;;;16.40;99.90;15.80;99033;;;;576149;246;24050;-79
2023/10/07 02:52:37;;;;;;;2.53;0.97;;;16.40;99.90;15.80;99025;;;;575845;246;24068;-80
2023/10/07 02:57:43;;;;;;;1.37;0.70;;;16.40;99.90;15.90;99022;;;;575824;246;24070;-78
2023/10/07 03:00:29;;;;;;;0.70;0.70;;;16.40;99.90;15.90;99013;;;;559590;252;24085;-79
2023/10/07 03:02:48;;;;;;;2.40;0.83;;;16.50;99.90;15.90;99010;;;;559388;252;24120;-79
2023/10/07 03:05:13;;;;;;;1.23;0.90;;;16.50;99.90;16.00;99001;;;;584094;246;24092;-81
2023/10/07 03:08:01;;;;;;;1.73;1.03;;;16.50;99.90;16.00;99008;;;;584487;243;24061;-80
2023/10/07 03:10:42;;;;;;;0.43;0.40;;;16.60;99.90;16.00;99002;;;;568116;248;24165;-80
2023/10/07 03:12:48;;;;;;;1.63;0.70;;;16.60;99.90;16.00;99023;;;;571460;248;24113;-79
2023/10/07 03:15:39;;;;;;;1.83;0.63;;;16.60;99.90;16.10;99018;;;;576470;248;24081;-80
2023/10/07 03:17:49;;;;;;;3.90;1.00;;;16.70;99.90;16.10;99003;;;;571131;248;24091;-79
2023/10/07 03:20:25;;;;;;;1.73;0.93;;;16.70;99.90;16.10;99003;;;;570432;246;24118;-81
2023/10/07 03:26:05;;;;;;;1.83;0.87;;;16.70;99.90;16.10;99027;;;;582581;246;24061;-79
2023/10/07 03:28:16;;;;;;;3.53;1.10;;;16.70;99.90;16.10;99014;;;;576938;245;24096;-81
2023/10/07 03:30:56;;;;;;;5.60;1.30;;;16.70;99.90;16.10;99017;;;;585407;243;24042;-80
2023/10/07 03:33:15;;;;;;;3.40;0.80;;;16.60;99.90;16.10;99005;;;;579744;246;24061;-80
2023/10/07 03:36:07;;;;;;;1.87;0.70;;;16.70;99.90;16.10;99027;;;;576283;243;24069;-81
2023/10/07 03:38:15;;;;;;;4.03;0.93;;;16.70;99.90;16.10;99042;;;;575851;246;24063;-80
2023/10/07 03:40:48;;;;;;;3.20;1.20;;;16.70;99.90;16.10;99036;;;;576411;246;24024;-79
2023/10/07 03:43:11;;;;;;;1.87;0.93;;;16.70;99.90;16.10;99036;;;;576541;245;24051;-79
2023/10/07 03:45:39;;;;;;;0.70;0.70;;;16.70;99.90;16.10;99047;;;;576148;246;24083;-80
2023/10/07 03:48:22;;;;;;;3.78;0.95;;;16.70;99.90;16.10;99039;;;;571128;246;35037;-80
2023/10/07 03:50:37;;;;;;;1.97;1.13;;;16.70;99.90;16.10;99024;;;;581011;246;24043;-80
2023/10/07 03:53:05;;;;;;;3.67;1.33;;;16.70;99.90;16.10;99036;;;;576435;246;23069;-81
2023/10/07 03:55:37;;;;;;;1.80;0.80;;;16.70;99.90;16.10;99041;;;;576068;246;24039;-80
2023/10/07 03:58:01;;;;;;;3.20;1.10;;;16.60;99.90;16.10;99040;;;;576330;243;24052;-79
2023/10/07 04:00:33;;;;;;;7.27;1.03;;;16.60;99.90;16.10;99041;;;;576088;246;24096;-80
2023/10/07 04:03:07;;;;;;;6.97;1.17;;;16.60;99.90;16.10;99040;;;;576333;243;24050;-79
2023/10/07 04:05:31;;;;;;;3.90;1.40;;;16.60;99.90;16.10;99040;;;;576273;246;25124;-80
2023/10/07 04:07:54;;;;;;;2.07;0.97;;;16.70;99.90;16.00;99042;;;;575723;246;24067;-81
2023/10/07 04:10:31;;;;;;;4.57;1.47;;;16.60;99.90;16.00;99041;;;;584587;239;24125;-80
2023/10/07 04:12:54;;;;;;;5.03;0.83;;;16.60;99.90;16.00;99048;;;;576437;244;24109;-80
2023/10/07 04:15:27;;;;;;;3.70;1.10;;;16.60;99.90;16.00;99038;;;;575552;246;23079;-79
2023/10/07 04:17:52;;;;;;;7.37;1.20;;;16.60;99.90;16.00;99053;;;;575849;246;24068;-80
2023/10/07 04:20:22;;;;;;;9.10;1.37;;;16.50;99.90;16.00;99057;;;;575374;246;24047;-79
2023/10/07 04:23:00;;;;;;;4.90;1.63;;;16.50;99.90;16.00;99061;;;;575551;244;24067;-79
2023/10/07 04:25:23;;;;;;;8.63;1.58;;;16.50;99.90;15.90;99068;;;;570531;246;35070;-79
2023/10/07 04:27:53;;;;;;;5.60;1.87;;;16.50;99.90;15.90;99077;;;;575415;243;24067;-79
2023/10/07 04:30:18;;;;;;;5.80;1.40;;;16.50;99.90;15.90;99078;;;;575509;246;24060;-79
2023/10/07 04:32:53;;;;;;;4.07;1.23;;;16.50;99.90;15.90;99093;;;;559185;252;24146;-79
2023/10/07 04:35:20;;;;;;;7.47;1.70;;;16.50;99.90;15.90;99090;;;;583692;245;24080;-79
2023/10/07 04:37:54;;;;;;;12.20;1.70;;;16.50;99.90;15.80;99106;;;;575609;244;24048;-80
2023/10/07 04:45:48;;;;;;;3.13;1.73;;;16.20;99.90;15.50;99092;;;;585497;245;24053;-80
2023/10/07 04:48:42;;;;;;;9.33;2.17;;;16.10;99.90;15.50;99122;;;;576039;246;24129;-80
2023/10/07 04:50:41;;;;;;;8.87;2.13;;;16.10;99.90;15.40;99109;;;;574110;243;24090;-79
2023/10/07 04:53:09;;;;;;;9.23;2.20;;;16.00;99.90;15.40;99150;;;;575902;246;24059;-80
2023/10/07 04:55:39;;;;;;;18.07;2.03;;;15.90;99.90;15.30;99120;;;;575839;246;24067;-80
2023/10/07 04:58:05;;;;;;;3.07;1.37;;;15.90;99.90;15.20;99125;;;;575826;244;24079;-80
2023/10/07 05:03:01;;;;;;;8.27;1.40;;;15.80;99.90;15.10;99123;;;;575629;246;24049;-80
2023/10/07 05:05:30;;;;;;;15.13;1.83;;;15.70;99.90;15.00;99125;;;;570416;246;24103;-79
2023/10/07 05:07:58;;;;;;;15.47;2.17;;;15.60;99.90;15.00;99147;;;;575508;246;24054;-79
2023/10/07 05:10:28;;;;;;;5.60;1.07;;;15.50;99.90;15.00;99134;;;;580730;244;24068;-79
2023/10/07 05:12:55;;;;;;;6.47;1.80;;;15.50;99.90;15.00;99136;;;;575525;246;24052;-79
2023/10/07 05:15:21;;;;;;;10.37;2.20;;;15.60;99.90;15.00;99130;;;;575950;243;24066;-80
2023/10/07 05:17:52;;;;;;;10.40;2.13;;;15.50;99.90;14.90;99144;;;;580633;244;25103;-79
2023/10/07 05:20:32;;;;;;;4.83;1.70;;;15.50;99.90;14.90;99150;;;;576228;243;24064;-79
2023/10/07 05:23:00;;;;;;;9.30;2.13;;;15.50;99.90;14.90;99156;;;;576044;245;25114;-80
2023/10/07 05:25:26;;;;;;;3.97;1.13;;;15.50;99.90;14.90;99168;;;;575776;246;24190;-79
2023/10/07 05:27:55;;;;;;;12.00;2.03;;;15.40;99.90;14.80;99168;;;;549835;257;24125;-78
2023/10/07 05:30:21;;;;;;;16.13;3.07;;;15.40;99.90;14.70;99174;;;;559449;252;24111;-79
2023/10/07 05:32:49;;;;;;;10.43;2.40;;;15.30;99.90;14.70;99180;;;;571262;246;24076;-79
2023/10/07 05:35:18;;;;;;;11.73;1.90;;;15.30;99.90;14.70;99183;;;;575782;246;24103;-80
2023/10/07 05:37:46;;;;;;;6.57;1.70;;;15.20;99.90;14.60;99210;;;;575698;246;24082;-78
2023/10/07 05:40:16;;;;;;;12.87;1.33;;;15.20;99.90;14.60;99207;;;;580354;243;24062;-79
2023/10/07 05:42:42;;;;;;;5.13;2.17;;;15.10;99.90;14.50;99200;;;;575500;246;25148;-80
2023/10/07 05:45:10;;;;;;;11.30;2.23;;;15.10;99.90;14.40;99203;;;;575712;246;24089;-79
2023/10/07 05:47:38;;;;;;;6.37;2.43;;;15.00;99.90;14.40;99209;;;;584441;246;24052;-78
2023/10/07 05:50:08;;;;;;;9.63;2.83;;;15.00;99.90;14.40;99225;;;;576001;244;24113;-79
2023/10/07 05:52:35;;;;;;;9.40;2.30;;;15.00;99.90;14.30;99225;;;;586097;243;24062;-79
2023/10/07 05:55:02;;;;;;;7.90;1.60;;;14.90;99.90;14.30;99211;;;;576638;246;24050;-78
2023/10/07 05:57:31;;;;;;;6.70;1.77;;;14.90;99.90;14.30;99213;;;;576747;246;24047;-79
2023/10/07 05:59:59;;;;;;;13.43;2.43;;;14.80;99.90;14.20;99231;;;;576997;246;24039;-79
2023/10/07 06:02:27;;;;;;;11.90;2.03;;;14.80;99.90;14.20;99247;;;;576593;245;24058;-79
2023/10/07 06:04:54;;;;;;;12.00;1.87;;;14.80;99.90;14.20;99238;;;;576631;246;24046;-80
2023/10/07 06:07:22;;;;;;;9.47;1.70;;;14.80;99.90;14.10;99250;;;;576471;244;24035;-79
2023/10/07 06:09:51;;;;;;;11.53;2.37;;;14.70;99.90;14.10;99241;;;;573512;245;24111;-80
2023/10/07 06:12:21;;;;;;;6.75;2.30;;;14.70;99.90;14.10;99240;;;;570874;243;35123;-81
2023/10/07 06:14:47;;;;;;;4.97;1.20;;;14.70;99.90;14.10;99240;;;;576035;246;24097;-79
2023/10/07 06:17:15;;;;;;;14.50;2.53;;;14.70;99.90;14.10;99227;;;;576067;246;24064;-80
2023/10/07 06:19:43;;;;;;;10.40;2.07;;;14.70;99.90;14.10;99245;;;;576095;246;24049;-79
2023/10/07 06:22:11;;;;;;;11.83;2.27;;;14.70;99.90;14.10;99237;;;;575942;246;24082;-80
2023/10/07 06:24:39;;;;;;;14.83;2.33;;;14.70;99.90;14.10;99249;;;;576105;245;24054;-79
2023/10/07 06:27:11;;;;;;;5.57;1.27;;;14.70;99.90;14.10;99240;;;;571418;246;24058;-80
2023/10/07 06:29:36;;;;;;;12.17;2.50;;;14.70;99.90;14.10;99252;;;;575461;246;24147;-80
2023/10/07 06:35:00;;;;;;;10.67;2.30;;;14.80;99.90;14.20;99265;;;;581110;244;24062;-80
2023/10/07 06:37:29;;;;;;;9.70;1.57;;;14.90;99.90;14.30;99266;;;;574872;246;24092;-79
2023/10/07 06:39:48;;;;;;;7.30;1.60;;;14.90;99.90;14.50;99271;;;;575343;246;24113;-80
2023/10/07 06:42:21;;;;;;;10.47;2.03;;;15.00;99.90;14.50;99271;;;;575620;244;24059;-79
2023/10/07 06:44:43;;;;;;;9.40;2.30;;;15.10;99.90;14.50;99267;;;;575119;246;24067;-79
2023/10/07 06:47:12;;;;;;;8.83;1.53;;;15.10;99.90;14.50;99280;;;;584796;242;24060;-79
2023/10/07 06:49:40;;;;;;;7.97;1.57;;;15.10;99.90;14.50;99279;;;;584516;245;24060;-79
2023/10/07 06:52:12;;;;;;;8.43;2.03;;;15.10;99.90;14.50;99284;;;;549873;254;24099;-80
2023/10/07 06:54:38;;;;;;;13.73;2.60;;;15.10;99.90;14.50;99281;;;;566069;252;24160;-80
2023/10/07 06:57:13;;;;;;;8.10;1.90;;;15.10;99.90;14.50;99291;;;;570842;246;24062;-81
2023/10/07 06:59:32;;;;;;;8.93;2.30;;;15.10;99.90;14.50;99298;;;;574835;246;25208;-79
2023/10/07 07:02:06;;;;;;;11.53;2.07;;;15.10;99.90;14.60;99299;;;;576354;245;24077;-81
2023/10/07 07:04:35;;;;;;;6.97;1.60;;;15.20;99.90;14.70;99306;;;;576967;246;24057;-80
2023/10/07 07:07:11;;;;;;;4.70;1.20;;;15.20;99.90;14.80;99326;;;;576564;246;24071;-79
2023/10/07 07:12:16;;;;;;;6.47;1.70;;;15.50;99.90;15.40;99326;;;;581194;243;24067;-79
2023/10/07 07:14:50;;;;;;;7.87;1.60;;;16.00;99.90;15.50;99321;;;;580883;243;24100;-80
2023/10/07 07:17:29;;;;;;;6.40;1.53;;;16.00;99.90;15.50;99330;;;;575821;246;24105;-79
2023/10/07 07:22:46;;;;;;;7.27;1.70;;;15.90;99.90;15.30;99344;;;;580858;243;24078;-78
2023/10/07 07:25:11;;;;;;;5.03;1.60;;;15.90;99.90;15.30;99336;;;;582466;244;24099;-79
2023/10/07 07:27:52;;;;;;;10.20;1.60;;;15.90;99.90;15.80;99354;;;;584447;244;24074;-79
2023/10/07 07:30:29;;;;;;;11.23;2.53;;;16.50;99.90;16.00;99357;;;;578743;246;24149;-81
2023/10/07 07:33:06;;;;;;;10.37;1.80;;;16.50;99.90;16.00;99366;;;;576563;246;24072;-79
2023/10/07 07:35:22;;;;;;;6.70;2.27;;;16.60;99.90;15.80;99361;;;;574426;246;24067;-79
2023/10/07 07:37:46;;;;;;;7.30;1.77;;;16.40;99.90;15.90;99370;;;;575764;243;24049;-79
2023/10/07 07:42:57;;;;;;;14.73;1.97;;;16.50;99.90;15.80;99389;;;;539449;258;24195;-79
2023/10/07 07:45:28;;;;;;;8.77;1.93;;;16.40;99.90;15.80;99390;;;;561229;245;24055;-79
2023/10/07 07:47:56;;;;;;;9.83;1.80;;;16.40;99.90;15.80;99400;;;;577238;246;24063;-79
2023/10/07 07:50:24;;;;;;;6.47;1.87;;;16.40;99.90;15.80;99394;;;;576716;246;24082;-79
2023/10/07 07:52:53;;;;;;;10.03;2.00;;;16.40;99.90;15.80;99389;;;;577059;246;24056;-80
2023/10/07 07:55:20;;;;;;;7.17;1.67;;;16.30;99.90;15.70;99392;;;;575498;243;24041;-79
2023/10/07 07:57:50;;;;;;;10.00;1.77;;;16.30;99.90;15.60;99396;;;;575535;246;24051;-79
2023/10/07 08:00:22;;;;;;;5.80;1.53;;;16.30;99.90;15.60;99402;;;;575359;246;24046;-79
2023/10/07 08:02:50;;;;;;;9.50;2.77;;;16.20;99.90;15.60;99416;;;;575597;243;24080;-80
2023/10/07 08:05:18;;;;;;;8.67;2.47;;;16.20;99.90;15.60;99438;;;;584308;243;24133;-80
2023/10/07 08:07:51;;;;;;;10.13;2.03;;;16.20;99.90;15.70;99446;;;;575548;246;24042;-79
2023/10/07 08:10:20;;;;;;;7.13;2.27;;;16.30;99.90;15.70;99456;;;;575805;243;24079;-79
2023/10/07 08:12:43;;;;;;;11.93;1.90;;;16.30;99.90;15.70;99439;;;;576221;243;24168;-80
2023/10/07 08:17:45;;;;;;;7.13;2.53;;;16.30;99.90;15.90;99448;;;;585365;243;24043;-79
2023/10/07 08:20:11;;;;;;;9.67;2.13;;;16.50;99.90;16.00;99459;;;;576411;243;24069;-80
2023/10/07 08:22:45;;;;;;;9.53;1.67;;;16.50;99.90;16.10;99460;;;;584975;243;24060;-80
2023/10/07 08:25:08;;;;;;;8.73;1.93;;;16.60;99.90;16.10;99471;;;;571082;246;24067;-79
2023/10/07 08:27:49;;;;;;;9.90;2.13;;;16.70;99.90;16.00;99471;;;;584856;243;24082;-79
2023/10/07 08:30:39;;;;;;;6.97;1.30;;;16.60;99.90;15.90;99462;;;;576373;246;24053;-78
2023/10/07 08:32:48;;;;;;;13.83;2.20;;;16.50;99.90;15.90;99474;;;;579162;246;24142;-79
2023/10/07 08:35:17;;;;;;;10.53;2.47;;;16.40;99.90;16.20;99485;;;;576098;243;24065;-79
2023/10/07 08:37:47;;;;;;;7.87;1.50;;;16.70;99.90;16.40;99468;;;;575809;243;24105;-79
2023/10/07 08:40:15;;;;;;;2.37;1.37;;;16.90;99.90;16.40;99486;;;;571980;246;24053;-80
2023/10/07 08:42:44;;;;;;;7.73;2.13;;;17.00;99.90;16.30;99480;;;;580746;246;24055;-81
2023/10/07 08:45:14;;;;;;;9.20;2.03;;;17.00;99.90;16.40;99485;;;;571270;246;24047;-80
2023/10/07 08:47:48;;;;;;;12.83;2.10;;;16.90;99.90;16.30;99499;;;;580648;246;24052;-79
2023/10/07 08:50:07;;;;;;;9.80;2.10;;;16.90;99.90;16.20;99507;;;;576313;243;24052;-78
2023/10/07 08:52:34;;;;;;;6.17;2.60;;;16.80;99.90;16.00;99519;;;;575541;246;24088;-79
2023/10/07 08:55:03;;;;;;;6.70;2.10;;;16.60;99.90;15.80;99522;;;;570964;246;24186;-77
2023/10/07 08:57:34;;;;;;;11.83;2.17;;;16.50;99.90;15.80;99533;;;;575408;243;24056;-79
2023/10/07 08:59:59;;;;;;;7.13;2.03;;;16.40;99.90;16.00;99547;;;;575764;243;24044;-79
2023/10/07 09:02:36;;;;;;;18.03;2.53;;;16.80;99.90;16.30;99542;;;;575505;243;24052;-79
2023/10/07 09:05:16;;;;;;;6.73;1.70;;;16.80;99.90;16.40;99544;;;;580418;243;24059;-79
2023/10/07 09:07:38;;;;;;;1.70;0.90;;;17.00;99.90;16.40;99566;;;;576403;245;24048;-80
2023/10/07 09:09:56;;;;;;;2.80;1.13;;;17.00;99.90;16.40;99546;;;;551709;256;24141;-80
2023/10/07 09:12:35;;;;;;;10.10;1.60;;;17.00;99.90;16.30;99548;;;;575904;245;24129;-80
2023/10/07 09:15:01;;;;;;;4.77;1.17;;;16.90;99.90;16.40;99569;;;;576310;243;24070;-79
2023/10/07 09:17:29;;;;;;;5.30;1.00;;;17.00;99.90;16.40;99571;;;;580364;245;24059;-80
2023/10/07 09:20:00;;;;;;;4.00;1.10;;;16.90;99.90;16.20;99589;;;;575353;246;24062;-80
2023/10/07 09:22:35;;;;;;;1.70;0.87;;;16.80;99.90;16.20;99586;;;;575612;244;24115;-79
2023/10/07 09:25:17;;;;;;;4.67;1.43;;;16.80;99.90;16.60;99596;;;;575752;245;24104;-79
2023/10/07 09:27:56;;;;;;;2.30;1.03;;;17.10;99.90;16.70;99608;;;;573811;246;24056;-79
2023/10/07 09:33:17;;;;;;;7.60;0.57;;;17.60;99.90;17.00;99630;;;;576799;246;24041;-79
2023/10/07 09:35:46;;;;;;;1.77;0.80;;;17.50;99.90;17.50;99620;;;;576526;243;24075;-79
2023/10/07 09:38:33;;;;;;;2.30;1.10;;;18.10;99.90;18.00;99625;;;;576508;246;24073;-79
2023/10/07 09:43:27;;;;;;;0.87;0.80;;;19.00;99.90;18.50;99632;;;;575939;246;24090;-80
2023/10/07 09:45:58;;;;;;;1.20;0.97;;;19.30;99.90;19.40;99646;;;;576063;246;24085;-80
2023/10/07 09:48:33;;;;;;;3.63;1.10;;;20.10;99.90;20.30;99652;;;;574756;246;24092;-80
2023/10/07 09:51:04;;;;;;;1.47;1.10;;;22.00;98.80;21.20;99677;;;;576020;246;24180;-79
2023/10/07 09:53:47;;;;;;;2.37;1.10;;;22.70;95.40;21.80;99676;;;;584504;245;24093;-80
2023/10/07 09:56:43;;;;;;;1.80;1.00;;;22.60;95.30;22.00;99697;;;;580848;246;24097;-80
2023/10/07 09:59:32;;;;;;;1.17;0.80;;;23.00;91.10;22.40;99693;;;;571571;246;24099;-79
2023/10/07 10:02:27;;;;;;;10.40;1.17;;;23.40;87.30;22.60;99695;;;;574296;246;24191;-80
2023/10/07 10:05:06;;;;;;;2.97;0.60;;;23.70;81.70;22.10;99703;;;;553199;250;23170;-79
2023/10/07 10:08:11;;;;;;;2.20;0.50;;;23.40;77.90;21.70;99697;;;;572258;246;24143;-81
2023/10/07 10:10:32;;;;;;;1.30;0.87;;;22.50;76.90;21.30;99713;;;;582861;245;24092;-79
2023/10/07 10:18:35;;;;;;;0.47;0.40;;;21.60;77.40;20.20;99705;;;;580327;246;24053;-80
2023/10/07 10:20:44;;;;;;;1.60;0.47;;;21.50;77.30;19.70;99722;;;;574148;246;24115;-80
2023/10/07 10:23:20;;;;;;;0.70;0.70;;;21.00;78.30;19.00;99704;;;;580782;246;24055;-80
2023/10/07 10:25:54;;;;;;;0.73;0.63;;;19.80;80.30;18.60;99696;;;;575661;246;23077;-79
2023/10/07 10:28:31;;;;;;;1.25;0.60;;;19.80;80.30;18.10;99701;;;;574533;246;34956;-80
2023/10/07 10:31:00;;;;;;;2.33;0.70;;;19.20;79.80;17.70;99711;;;;580273;246;23076;-78
2023/10/07 10:33:32;;;;;;;0.73;0.57;;;18.70;80.90;17.40;99714;;;;575203;245;24060;-79
2023/10/07 10:36:00;;;;;;;0.80;0.43;;;18.30;83.20;17.00;99723;;;;575306;246;24062;-80
2023/10/07 10:38:42;;;;;;;0.40;0.40;;;17.90;81.70;16.70;99718;;;;581027;245;24073;-79
2023/10/07 10:41:11;;;;;;;0.70;0.50;;;17.50;79.20;16.40;99738;;;;581198;244;24058;-79
2023/10/07 10:43:38;;;;;;;2.70;0.50;;;17.10;79.70;16.20;99733;;;;585010;243;24071;-79
2023/10/07 10:46:06;;;;;;;0.47;0.47;;;16.90;81.60;16.10;99717;;;;576404;246;24094;-79
2023/10/07 10:48:34;;;;;;;0.73;0.50;;;16.70;83.50;15.80;99724;;;;585010;244;24056;-79
2023/10/07 10:51:09;;;;;;;0.30;0.30;;;16.50;83.90;15.80;99746;;;;576170;246;24097;-80
2023/10/07 10:53:41;;;;;;;0.60;0.40;;;16.40;85.80;15.60;99749;;;;572078;246;24097;-79
2023/10/07 10:56:10;;;;;;;0.93;0.83;;;16.30;85.80;15.50;99767;;;;576132;246;24055;-78
2023/10/07 10:58:37;;;;;;;4.67;0.60;;;16.10;85.60;15.40;99753;;;;572413;246;24054;-79
2023/10/07 11:01:08;;;;;;;2.13;0.70;;;16.00;86.00;15.30;99748;;;;575543;245;24108;-79
2023/10/07 11:03:40;;;;;;;0.87;0.53;;;15.80;86.30;15.20;99764;;;;577335;246;24100;-78
2023/10/07 11:06:11;;;;;;;0.97;0.20;;;15.70;86.20;15.00;99759;;;;584008;245;24057;-79
2023/10/07 11:08:36;;;;;;;2.80;0.50;;;15.60;85.50;14.80;99779;;;;575177;246;24078;-79
2023/10/07 11:11:10;;;;;;;1.73;0.50;;;15.40;86.70;14.70;99788;;;;575489;243;24073;-78
2023/10/07 11:13:31;;;;;;;0.40;0.40;;;15.30;86.40;14.60;99769;;;;579945;246;24058;-79
2023/10/07 11:16:10;;;;;;;0.60;0.60;;;15.20;86.70;14.50;99771;;;;575789;245;24062;-78
2023/10/07 11:18:38;;;;;;;1.52;0.60;;;15.10;88.40;14.40;99768;;;;570884;246;35092;-80
2023/10/07 11:21:14;;;;;;;0.70;0.57;;;15.00;89.30;14.40;99767;;;;582824;244;24097;-80
2023/10/07 11:23:53;;;;;;;0.30;0.30;;;14.90;90.30;14.40;99776;;;;584643;243;24072;-80
2023/10/07 11:26:26;;;;;;;0.60;0.60;;;14.90;90.40;14.30;99779;;;;575242;246;24124;-80
2023/10/07 11:28:51;;;;;;;2.60;0.70;;;14.90;90.30;14.20;99778;;;;580166;245;24106;-80
2023/10/07 11:31:30;;;;;;;1.03;0.80;;;14.80;90.30;14.20;99783;;;;575365;243;24075;-80
2023/10/07 11:34:02;;;;;;;0.20;0.10;;;14.80;91.10;14.20;99786;;;;580607;245;24097;-81
2023/10/07 11:36:29;;;;;;;0.30;0.20;;;14.80;91.70;14.10;99784;;;;575182;246;24129;-80
2023/10/07 11:38:57;;;;;;;0.43;0.30;;;14.70;88.30;14.10;99785;;;;580279;244;24137;-80
2023/10/07 11:41:29;;;;;;;0.57;0.37;;;14.60;87.90;14.00;99795;;;;575355;245;24112;-80
2023/10/07 11:43:54;;;;;;;0.10;0.10;;;14.60;87.80;14.00;99782;;;;580191;244;24101;-80
2023/10/07 11:46:24;;;;;;;0.17;0.17;;;14.60;87.50;13.90;99791;;;;575656;245;24107;-80
2023/10/07 11:48:50;;;;;;;0.53;0.37;;;14.50;88.10;13.90;99791;;;;576548;243;24051;-80
2023/10/07 11:51:18;;;;;;;0.83;0.40;;;14.50;88.90;13.90;99774;;;;576825;246;24047;-80
2023/10/07 11:53:45;;;;;;;0.93;0.50;;;14.50;89.10;13.90;99789;;;;585014;243;24064;-80
2023/10/07 11:56:14;;;;;;;0.20;0.20;;;14.50;89.20;13.90;99792;;;;580843;244;24065;-81
2023/10/07 11:58:46;;;;;;;0.63;0.53;;;14.50;88.30;13.90;99786;;;;575907;243;24172;-80
2023/10/07 12:01:12;;;;;;;2.07;0.50;;;14.50;89.30;14.00;99790;;;;575491;244;24064;-80
2023/10/07 12:03:44;;;;;;;0.33;0.33;;;14.50;89.00;14.20;99785;;;;575760;244;24116;-80
2023/10/07 12:06:11;;;;;;;1.60;0.77;;;14.80;88.20;14.50;99789;;;;583682;243;24094;-81
2023/10/07 12:08:39;;;;;;;0.40;0.40;;;15.10;86.90;14.70;99795;;;;575649;243;24090;-80
2023/10/07 12:11:08;;;;;;;2.57;0.33;;;15.20;84.40;14.80;99810;;;;575396;246;24093;-79
2023/10/07 12:13:40;;;;;;;1.37;0.60;;;15.30;84.30;14.80;99809;;;;575489;243;24062;-81
2023/10/07 12:16:06;;;;;;;1.73;0.70;;;15.40;84.10;14.80;99790;;;;575833;246;24179;-80
2023/10/07 12:18:34;;;;;;;1.60;1.20;;;15.40;83.90;14.80;99780;;;;575784;246;24055;-79